sensor_id;sensor_type;location;lat;lon;timestamp;temperature;humidity
21267;DHT22;10791;53.108;18.326;2022-07-23T00:01:16;18.90;99.90
21267;DHT22;10791;53.108;18.326;2022-07-23T00:06:29;18.90;99.90
21267;DHT22;10791;53.108;18.326;2022-07-23T00:11:32;18.80;99.90
21267;DHT22;10791;53.108;18.326;2022-07-23T00:16:35;18.60;99.90
21267;DHT22;10791;53.108;18.326;2022-07-23T00:21:39;18.40;99.90
21267;DHT22;10791;53.108;18.326;2022-07-23T00:26:42;18.20;99.90
21267;DHT22;10791;53.108;18.326;2022-07-23T00:31:45;18.00;99.90
21267;DHT22;10791;53.108;18.326;2022-07-23T00:36:49;17.90;99.90
21267;DHT22;10791;53.108;18.326;2022-07-23T00:41:52;17.90;99.90
21267;DHT22;10791;53.108;18.326;2022-07-23T00:46:58;17.80;99.90
21267;DHT22;10791;53.108;18.326;2022-07-23T00:52:02;17.70;99.90
21267;DHT22;10791;53.108;18.326;2022-07-23T00:57:06;17.60;99.90
21267;DHT22;10791;53.108;18.326;2022-07-23T01:02:09;17.50;99.90
21267;DHT22;10791;53.108;18.326;2022-07-23T01:07:12;17.40;99.90
21267;DHT22;10791;53.108;18.326;2022-07-23T01:12:16;17.30;99.90
21267;DHT22;10791;53.108;18.326;2022-07-23T01:17:19;17.20;99.90
21267;DHT22;10791;53.108;18.326;2022-07-23T01:22:28;17.20;99.90
21267;DHT22;10791;53.108;18.326;2022-07-23T01:27:32;17.20;99.90
21267;DHT22;10791;53.108;18.326;2022-07-23T01:32:35;17.20;99.90
21267;DHT22;10791;53.108;18.326;2022-07-23T01:37:38;17.10;99.90
21267;DHT22;10791;53.108;18.326;2022-07-23T01:42:41;17.00;99.90
21267;DHT22;10791;53.108;18.326;2022-07-23T01:47:45;16.90;99.90
21267;DHT22;10791;53.108;18.326;2022-07-23T01:52:49;16.90;99.90
21267;DHT22;10791;53.108;18.326;2022-07-23T01:57:52;16.80;99.90
21267;DHT22;10791;53.108;18.326;2022-07-23T02:02:55;16.70;99.90
21267;DHT22;10791;53.108;18.326;2022-07-23T02:08:00;16.60;99.90
21267;DHT22;10791;53.108;18.326;2022-07-23T02:13:04;16.50;99.90
21267;DHT22;10791;53.108;18.326;2022-07-23T02:18:07;16.60;99.90
21267;DHT22;10791;53.108;18.326;2022-07-23T02:23:11;16.50;99.90
21267;DHT22;10791;53.108;18.326;2022-07-23T02:28:14;16.30;99.90
21267;DHT22;10791;53.108;18.326;2022-07-23T02:33:18;16.20;99.90
21267;DHT22;10791;53.108;18.326;2022-07-23T02:38:21;16.10;99.90
21267;DHT22;10791;53.108;18.326;2022-07-23T02:43:24;16.10;99.90
21267;DHT22;10791;53.108;18.326;2022-07-23T02:48:27;16.00;99.90
21267;DHT22;10791;53.108;18.326;2022-07-23T02:53:31;16.00;99.90
21267;DHT22;10791;53.108;18.326;2022-07-23T02:58:34;16.00;99.90
21267;DHT22;10791;53.108;18.326;2022-07-23T03:03:37;16.00;99.90
21267;DHT22;10791;53.108;18.326;2022-07-23T03:08:41;16.00;99.90
21267;DHT22;10791;53.108;18.326;2022-07-23T03:13:44;16.00;99.90
21267;DHT22;10791;53.108;18.326;2022-07-23T03:18:47;16.00;99.90
21267;DHT22;10791;53.108;18.326;2022-07-23T03:23:51;16.00;99.90
21267;DHT22;10791;53.108;18.326;2022-07-23T03:28:54;16.00;99.90
21267;DHT22;10791;53.108;18.326;2022-07-23T03:33:58;16.00;99.90
21267;DHT22;10791;53.108;18.326;2022-07-23T03:39:01;16.00;99.90
21267;DHT22;10791;53.108;18.326;2022-07-23T03:44:07;15.80;99.90
21267;DHT22;10791;53.108;18.326;2022-07-23T03:49:10;15.90;99.90
21267;DHT22;10791;53.108;18.326;2022-07-23T03:54:14;16.00;99.90
21267;DHT22;10791;53.108;18.326;2022-07-23T03:59:17;16.30;99.90
21267;DHT22;10791;53.108;18.326;2022-07-23T04:04:25;16.50;99.90
21267;DHT22;10791;53.108;18.326;2022-07-23T04:09:28;16.70;99.90
21267;DHT22;10791;53.108;18.326;2022-07-23T04:14:32;16.90;99.90
21267;DHT22;10791;53.108;18.326;2022-07-23T04:19:35;17.00;99.90
21267;DHT22;10791;53.108;18.326;2022-07-23T04:24:42;17.10;99.90
21267;DHT22;10791;53.108;18.326;2022-07-23T04:29:45;17.20;99.90
21267;DHT22;10791;53.108;18.326;2022-07-23T04:34:49;17.30;99.90
21267;DHT22;10791;53.108;18.326;2022-07-23T04:39:53;17.50;99.90
21267;DHT22;10791;53.108;18.326;2022-07-23T04:44:56;17.70;99.90
21267;DHT22;10791;53.108;18.326;2022-07-23T04:50:00;18.50;99.90
21267;DHT22;10791;53.108;18.326;2022-07-23T04:55:04;19.80;99.90
21267;DHT22;10791;53.108;18.326;2022-07-23T05:00:08;20.90;99.90
21267;DHT22;10791;53.108;18.326;2022-07-23T05:05:12;21.20;99.90
21267;DHT22;10791;53.108;18.326;2022-07-23T05:10:16;21.70;99.90
21267;DHT22;10791;53.108;18.326;2022-07-23T05:15:19;21.60;99.90
21267;DHT22;10791;53.108;18.326;2022-07-23T05:20:23;21.90;99.90
21267;DHT22;10791;53.108;18.326;2022-07-23T05:25:26;22.10;99.90
21267;DHT22;10791;53.108;18.326;2022-07-23T05:30:29;22.20;99.90
21267;DHT22;10791;53.108;18.326;2022-07-23T05:35:32;22.20;99.90
21267;DHT22;10791;53.108;18.326;2022-07-23T05:40:36;22.10;99.90
21267;DHT22;10791;53.108;18.326;2022-07-23T05:45:39;21.90;99.90
21267;DHT22;10791;53.108;18.326;2022-07-23T05:50:42;21.80;99.90
21267;DHT22;10791;53.108;18.326;2022-07-23T05:55:45;21.90;99.90
21267;DHT22;10791;53.108;18.326;2022-07-23T06:00:49;22.00;99.90
21267;DHT22;10791;53.108;18.326;2022-07-23T06:05:52;22.00;99.90
21267;DHT22;10791;53.108;18.326;2022-07-23T06:10:55;22.10;99.90
21267;DHT22;10791;53.108;18.326;2022-07-23T06:15:59;22.20;99.90
21267;DHT22;10791;53.108;18.326;2022-07-23T06:21:02;22.50;99.90
21267;DHT22;10791;53.108;18.326;2022-07-23T06:26:25;22.90;99.90
21267;DHT22;10791;53.108;18.326;2022-07-23T06:31:28;23.20;99.90
21267;DHT22;10791;53.108;18.326;2022-07-23T06:36:31;23.50;99.90
21267;DHT22;10791;53.108;18.326;2022-07-23T06:41:35;23.60;99.90
21267;DHT22;10791;53.108;18.326;2022-07-23T06:46:38;23.80;99.90
21267;DHT22;10791;53.108;18.326;2022-07-23T06:51:42;24.10;99.90
21267;DHT22;10791;53.108;18.326;2022-07-23T06:56:45;24.40;99.90
21267;DHT22;10791;53.108;18.326;2022-07-23T07:01:50;24.60;99.90
21267;DHT22;10791;53.108;18.326;2022-07-23T07:06:53;24.60;99.90
21267;DHT22;10791;53.108;18.326;2022-07-23T07:11:57;24.70;99.90
21267;DHT22;10791;53.108;18.326;2022-07-23T07:17:01;25.00;99.90
21267;DHT22;10791;53.108;18.326;2022-07-23T07:22:04;25.30;99.90
21267;DHT22;10791;53.108;18.326;2022-07-23T07:27:07;25.40;99.90
21267;DHT22;10791;53.108;18.326;2022-07-23T07:32:10;25.80;99.90
21267;DHT22;10791;53.108;18.326;2022-07-23T07:37:14;26.00;99.90
21267;DHT22;10791;53.108;18.326;2022-07-23T07:42:18;26.20;99.90
21267;DHT22;10791;53.108;18.326;2022-07-23T07:47:24;26.50;99.90
21267;DHT22;10791;53.108;18.326;2022-07-23T07:52:27;26.50;99.90
21267;DHT22;10791;53.108;18.326;2022-07-23T07:57:30;26.80;99.90
21267;DHT22;10791;53.108;18.326;2022-07-23T08:02:50;26.80;99.90
21267;DHT22;10791;53.108;18.326;2022-07-23T08:07:55;27.10;99.90
21267;DHT22;10791;53.108;18.326;2022-07-23T08:12:58;27.30;99.60
21267;DHT22;10791;53.108;18.326;2022-07-23T08:18:03;27.40;98.00
21267;DHT22;10791;53.108;18.326;2022-07-23T08:23:08;27.70;97.80
21267;DHT22;10791;53.108;18.326;2022-07-23T08:28:12;28.10;95.10
21267;DHT22;10791;53.108;18.326;2022-07-23T08:33:17;28.40;94.40
21267;DHT22;10791;53.108;18.326;2022-07-23T08:38:35;28.50;92.20
21267;DHT22;10791;53.108;18.326;2022-07-23T08:43:40;28.50;91.10
21267;DHT22;10791;53.108;18.326;2022-07-23T08:48:47;28.50;90.70
21267;DHT22;10791;53.108;18.326;2022-07-23T08:53:52;28.60;87.80
21267;DHT22;10791;53.108;18.326;2022-07-23T08:58:55;28.60;87.60
21267;DHT22;10791;53.108;18.326;2022-07-23T09:03:59;28.80;88.90
21267;DHT22;10791;53.108;18.326;2022-07-23T09:09:19;28.70;88.10
21267;DHT22;10791;53.108;18.326;2022-07-23T09:14:44;28.80;87.30
21267;DHT22;10791;53.108;18.326;2022-07-23T09:19:49;28.50;85.40
21267;DHT22;10791;53.108;18.326;2022-07-23T09:25:13;28.40;84.10
21267;DHT22;10791;53.108;18.326;2022-07-23T09:30:17;28.50;83.90
21267;DHT22;10791;53.108;18.326;2022-07-23T09:35:20;28.30;84.20
21267;DHT22;10791;53.108;18.326;2022-07-23T09:40:23;28.00;85.00
21267;DHT22;10791;53.108;18.326;2022-07-23T09:45:27;27.70;86.00
21267;DHT22;10791;53.108;18.326;2022-07-23T09:50:30;27.40;87.40
21267;DHT22;10791;53.108;18.326;2022-07-23T09:55:35;27.10;88.00
21267;DHT22;10791;53.108;18.326;2022-07-23T10:00:42;26.50;90.00
21267;DHT22;10791;53.108;18.326;2022-07-23T10:05:46;26.20;91.50
21267;DHT22;10791;53.108;18.326;2022-07-23T10:10:51;25.90;92.00
21267;DHT22;10791;53.108;18.326;2022-07-23T10:15:56;25.60;92.40
21267;DHT22;10791;53.108;18.326;2022-07-23T10:21:00;25.30;93.10
21267;DHT22;10791;53.108;18.326;2022-07-23T10:26:22;25.20;98.90
21267;DHT22;10791;53.108;18.326;2022-07-23T10:31:52;24.60;99.90
21267;DHT22;10791;53.108;18.326;2022-07-23T10:37:16;23.70;99.90
21267;DHT22;10791;53.108;18.326;2022-07-23T10:42:38;23.30;99.90
21267;DHT22;10791;53.108;18.326;2022-07-23T10:47:41;22.90;99.90
21267;DHT22;10791;53.108;18.326;2022-07-23T10:53:13;22.70;99.90
21267;DHT22;10791;53.108;18.326;2022-07-23T10:58:46;22.60;99.90
21267;DHT22;10791;53.108;18.326;2022-07-23T11:03:56;22.60;99.90
21267;DHT22;10791;53.108;18.326;2022-07-23T11:09:41;22.40;99.90
21267;DHT22;10791;53.108;18.326;2022-07-23T11:35:30;21.80;99.90
21267;DHT22;10791;53.108;18.326;2022-07-23T11:40:35;22.00;99.90
21267;DHT22;10791;53.108;18.326;2022-07-23T11:45:43;22.10;99.90
21267;DHT22;10791;53.108;18.326;2022-07-23T11:50:47;22.30;99.90
21267;DHT22;10791;53.108;18.326;2022-07-23T11:55:51;22.40;99.90
21267;DHT22;10791;53.108;18.326;2022-07-23T12:00:55;22.60;99.90
21267;DHT22;10791;53.108;18.326;2022-07-23T12:05:59;22.70;99.90
21267;DHT22;10791;53.108;18.326;2022-07-23T12:11:06;22.80;99.90
21267;DHT22;10791;53.108;18.326;2022-07-23T12:16:09;23.00;99.90
21267;DHT22;10791;53.108;18.326;2022-07-23T12:21:13;23.10;99.90
21267;DHT22;10791;53.108;18.326;2022-07-23T12:26:17;23.10;99.90
21267;DHT22;10791;53.108;18.326;2022-07-23T12:31:28;23.20;99.90
21267;DHT22;10791;53.108;18.326;2022-07-23T12:36:40;23.30;99.90
21267;DHT22;10791;53.108;18.326;2022-07-23T12:41:53;23.30;99.90
21267;DHT22;10791;53.108;18.326;2022-07-23T12:46:56;23.20;99.90
21267;DHT22;10791;53.108;18.326;2022-07-23T12:52:00;23.00;99.90
21267;DHT22;10791;53.108;18.326;2022-07-23T12:57:17;22.90;99.90
21267;DHT22;10791;53.108;18.326;2022-07-23T13:02:22;22.80;99.90
21267;DHT22;10791;53.108;18.326;2022-07-23T13:07:25;22.90;99.90
21267;DHT22;10791;53.108;18.326;2022-07-23T13:12:30;23.00;99.90
21267;DHT22;10791;53.108;18.326;2022-07-23T13:17:43;23.10;99.90
21267;DHT22;10791;53.108;18.326;2022-07-23T13:36:56;23.50;99.90
21267;DHT22;10791;53.108;18.326;2022-07-23T13:43:17;23.50;99.90
21267;DHT22;10791;53.108;18.326;2022-07-23T13:48:25;23.60;99.90
21267;DHT22;10791;53.108;18.326;2022-07-23T13:53:28;23.80;99.90
21267;DHT22;10791;53.108;18.326;2022-07-23T13:58:32;23.80;99.90
21267;DHT22;10791;53.108;18.326;2022-07-23T14:03:36;23.80;99.90
21267;DHT22;10791;53.108;18.326;2022-07-23T14:08:39;23.80;99.90
21267;DHT22;10791;53.108;18.326;2022-07-23T14:13:43;24.10;99.90
21267;DHT22;10791;53.108;18.326;2022-07-23T14:18:47;24.00;99.90
21267;DHT22;10791;53.108;18.326;2022-07-23T14:23:50;23.70;99.90
21267;DHT22;10791;53.108;18.326;2022-07-23T14:28:54;23.50;99.90
21267;DHT22;10791;53.108;18.326;2022-07-23T14:33:57;23.20;99.90
21267;DHT22;10791;53.108;18.326;2022-07-23T14:39:01;23.30;99.90
21267;DHT22;10791;53.108;18.326;2022-07-23T14:44:05;23.40;99.90
21267;DHT22;10791;53.108;18.326;2022-07-23T14:49:08;23.50;99.90
21267;DHT22;10791;53.108;18.326;2022-07-23T14:54:12;23.50;99.90
21267;DHT22;10791;53.108;18.326;2022-07-23T14:59:16;23.50;99.90
21267;DHT22;10791;53.108;18.326;2022-07-23T15:04:20;23.40;99.90
21267;DHT22;10791;53.108;18.326;2022-07-23T15:09:39;23.40;99.90
21267;DHT22;10791;53.108;18.326;2022-07-23T15:14:43;23.40;99.90
21267;DHT22;10791;53.108;18.326;2022-07-23T15:19:47;23.40;99.90
21267;DHT22;10791;53.108;18.326;2022-07-23T15:24:51;23.30;99.90
21267;DHT22;10791;53.108;18.326;2022-07-23T15:29:54;23.20;99.90
21267;DHT22;10791;53.108;18.326;2022-07-23T15:34:58;23.10;99.90
21267;DHT22;10791;53.108;18.326;2022-07-23T15:40:02;23.10;99.90
21267;DHT22;10791;53.108;18.326;2022-07-23T15:45:15;23.10;99.90
21267;DHT22;10791;53.108;18.326;2022-07-23T15:50:19;23.00;99.90
21267;DHT22;10791;53.108;18.326;2022-07-23T15:55:23;22.90;99.90
21267;DHT22;10791;53.108;18.326;2022-07-23T16:00:27;22.80;99.90
21267;DHT22;10791;53.108;18.326;2022-07-23T16:05:31;22.80;99.90
21267;DHT22;10791;53.108;18.326;2022-07-23T16:10:37;23.00;99.90
21267;DHT22;10791;53.108;18.326;2022-07-23T16:15:41;23.00;99.90
21267;DHT22;10791;53.108;18.326;2022-07-23T16:20:45;23.00;99.90
21267;DHT22;10791;53.108;18.326;2022-07-23T16:25:48;23.00;99.90
21267;DHT22;10791;53.108;18.326;2022-07-23T16:30:52;22.80;99.90
21267;DHT22;10791;53.108;18.326;2022-07-23T16:35:55;22.80;99.90
21267;DHT22;10791;53.108;18.326;2022-07-23T16:40:58;22.80;99.90
21267;DHT22;10791;53.108;18.326;2022-07-23T16:46:02;22.90;99.90
21267;DHT22;10791;53.108;18.326;2022-07-23T16:51:06;22.80;99.90
21267;DHT22;10791;53.108;18.326;2022-07-23T16:56:09;22.80;99.90
21267;DHT22;10791;53.108;18.326;2022-07-23T17:01:13;22.70;99.90
21267;DHT22;10791;53.108;18.326;2022-07-23T17:06:16;22.70;99.90
21267;DHT22;10791;53.108;18.326;2022-07-23T17:11:20;22.70;99.90
21267;DHT22;10791;53.108;18.326;2022-07-23T17:16:23;22.70;99.90
21267;DHT22;10791;53.108;18.326;2022-07-23T17:21:26;22.60;99.90
21267;DHT22;10791;53.108;18.326;2022-07-23T17:26:30;22.60;99.90
21267;DHT22;10791;53.108;18.326;2022-07-23T17:31:36;22.50;99.90
21267;DHT22;10791;53.108;18.326;2022-07-23T17:36:40;22.40;99.90
21267;DHT22;10791;53.108;18.326;2022-07-23T17:41:43;22.30;99.90
21267;DHT22;10791;53.108;18.326;2022-07-23T17:46:50;22.10;99.90
21267;DHT22;10791;53.108;18.326;2022-07-23T17:51:54;22.00;99.90
21267;DHT22;10791;53.108;18.326;2022-07-23T17:56:57;21.90;99.90
21267;DHT22;10791;53.108;18.326;2022-07-23T18:02:08;21.80;99.90
21267;DHT22;10791;53.108;18.326;2022-07-23T18:07:11;21.80;99.90
21267;DHT22;10791;53.108;18.326;2022-07-23T18:12:15;21.80;99.90
21267;DHT22;10791;53.108;18.326;2022-07-23T18:17:18;21.80;99.90
21267;DHT22;10791;53.108;18.326;2022-07-23T18:22:22;21.70;99.90
21267;DHT22;10791;53.108;18.326;2022-07-23T18:27:25;21.70;99.90
21267;DHT22;10791;53.108;18.326;2022-07-23T18:32:28;21.70;99.90
21267;DHT22;10791;53.108;18.326;2022-07-23T18:37:33;21.60;99.90
21267;DHT22;10791;53.108;18.326;2022-07-23T18:42:39;21.50;99.90
21267;DHT22;10791;53.108;18.326;2022-07-23T18:47:42;21.40;99.90
21267;DHT22;10791;53.108;18.326;2022-07-23T18:52:45;21.20;99.90
21267;DHT22;10791;53.108;18.326;2022-07-23T18:57:49;21.10;99.90
21267;DHT22;10791;53.108;18.326;2022-07-23T19:02:52;21.20;99.90
21267;DHT22;10791;53.108;18.326;2022-07-23T19:07:55;21.20;99.90
21267;DHT22;10791;53.108;18.326;2022-07-23T19:12:58;21.20;99.90
21267;DHT22;10791;53.108;18.326;2022-07-23T19:18:02;21.10;99.90
21267;DHT22;10791;53.108;18.326;2022-07-23T19:23:05;21.10;99.90
21267;DHT22;10791;53.108;18.326;2022-07-23T19:28:09;21.10;99.90
21267;DHT22;10791;53.108;18.326;2022-07-23T19:33:13;21.00;99.90
21267;DHT22;10791;53.108;18.326;2022-07-23T19:38:17;20.90;99.90
21267;DHT22;10791;53.108;18.326;2022-07-23T19:43:20;20.80;99.90
21267;DHT22;10791;53.108;18.326;2022-07-23T19:48:26;20.70;99.90
21267;DHT22;10791;53.108;18.326;2022-07-23T19:53:29;20.60;99.90
21267;DHT22;10791;53.108;18.326;2022-07-23T19:58:33;20.50;99.90
21267;DHT22;10791;53.108;18.326;2022-07-23T20:03:36;20.30;99.90
21267;DHT22;10791;53.108;18.326;2022-07-23T20:08:42;20.20;99.90
21267;DHT22;10791;53.108;18.326;2022-07-23T20:13:45;20.00;99.90
21267;DHT22;10791;53.108;18.326;2022-07-23T20:18:48;19.80;99.90
21267;DHT22;10791;53.108;18.326;2022-07-23T20:23:52;19.60;99.90
21267;DHT22;10791;53.108;18.326;2022-07-23T20:28:55;19.50;99.90
21267;DHT22;10791;53.108;18.326;2022-07-23T20:33:59;19.30;99.90
21267;DHT22;10791;53.108;18.326;2022-07-23T20:39:05;19.20;99.90
21267;DHT22;10791;53.108;18.326;2022-07-23T20:44:09;19.10;99.90
21267;DHT22;10791;53.108;18.326;2022-07-23T20:49:14;19.00;99.90
21267;DHT22;10791;53.108;18.326;2022-07-23T20:54:20;18.90;99.90
21267;DHT22;10791;53.108;18.326;2022-07-23T20:59:25;18.80;99.90
21267;DHT22;10791;53.108;18.326;2022-07-23T21:04:32;18.80;99.90
21267;DHT22;10791;53.108;18.326;2022-07-23T21:09:36;18.80;99.90
21267;DHT22;10791;53.108;18.326;2022-07-23T21:14:38;18.70;99.90
21267;DHT22;10791;53.108;18.326;2022-07-23T21:19:42;18.60;99.90
21267;DHT22;10791;53.108;18.326;2022-07-23T21:24:46;18.50;99.90
21267;DHT22;10791;53.108;18.326;2022-07-23T21:29:50;18.30;99.90
21267;DHT22;10791;53.108;18.326;2022-07-23T21:34:55;18.30;99.90
21267;DHT22;10791;53.108;18.326;2022-07-23T21:39:58;18.20;99.90
21267;DHT22;10791;53.108;18.326;2022-07-23T21:45:01;18.10;99.90
21267;DHT22;10791;53.108;18.326;2022-07-23T21:50:06;18.00;99.90
21267;DHT22;10791;53.108;18.326;2022-07-23T21:55:10;17.80;99.90
21267;DHT22;10791;53.108;18.326;2022-07-23T22:00:18;17.70;99.90
21267;DHT22;10791;53.108;18.326;2022-07-23T22:05:25;17.60;99.90
21267;DHT22;10791;53.108;18.326;2022-07-23T22:10:29;17.40;99.90
21267;DHT22;10791;53.108;18.326;2022-07-23T22:15:32;17.30;99.90
21267;DHT22;10791;53.108;18.326;2022-07-23T22:20:35;17.20;99.90
21267;DHT22;10791;53.108;18.326;2022-07-23T22:25:38;17.20;99.90
21267;DHT22;10791;53.108;18.326;2022-07-23T22:30:41;17.10;99.90
21267;DHT22;10791;53.108;18.326;2022-07-23T22:35:44;17.00;99.90
21267;DHT22;10791;53.108;18.326;2022-07-23T22:40:48;16.90;99.90
21267;DHT22;10791;53.108;18.326;2022-07-23T22:45:50;16.80;99.90
21267;DHT22;10791;53.108;18.326;2022-07-23T22:50:54;16.70;99.90
21267;DHT22;10791;53.108;18.326;2022-07-23T22:55:57;16.60;99.90
21267;DHT22;10791;53.108;18.326;2022-07-23T23:01:00;16.40;99.90
21267;DHT22;10791;53.108;18.326;2022-07-23T23:06:03;16.30;99.90
21267;DHT22;10791;53.108;18.326;2022-07-23T23:11:06;16.10;99.90
21267;DHT22;10791;53.108;18.326;2022-07-23T23:16:10;16.00;99.90
21267;DHT22;10791;53.108;18.326;2022-07-23T23:21:13;15.80;99.90
21267;DHT22;10791;53.108;18.326;2022-07-23T23:26:16;15.70;99.90
21267;DHT22;10791;53.108;18.326;2022-07-23T23:31:19;15.50;99.90
21267;DHT22;10791;53.108;18.326;2022-07-23T23:36:23;15.40;99.90
21267;DHT22;10791;53.108;18.326;2022-07-23T23:41:26;15.20;99.90
21267;DHT22;10791;53.108;18.326;2022-07-23T23:46:29;15.10;99.90
21267;DHT22;10791;53.108;18.326;2022-07-23T23:51:32;15.00;99.90
21267;DHT22;10791;53.108;18.326;2022-07-23T23:56:38;14.90;99.90
